createdAt,value
2023-02-16T00:01:30.679Z,101078.38
2023-02-16T00:04:16.991Z,101114.66
2023-02-16T00:06:45.178Z,101113.06
2023-02-16T00:09:13.189Z,101118.16
2023-02-16T00:11:59.555Z,101117.19
2023-02-16T00:14:28.520Z,101126.41
2023-02-16T00:16:58.777Z,101120.19
2023-02-16T00:19:39.131Z,101137.91
2023-02-16T00:22:07.880Z,101125.78
2023-02-16T00:24:35.765Z,101130.28
2023-02-16T00:27:04.059Z,101105.22
2023-02-16T00:29:36.958Z,101114.84
2023-02-16T00:32:06.195Z,101120.56
2023-02-16T00:34:36.386Z,101113.25
2023-02-16T00:37:06.761Z,101120.28
2023-02-16T00:39:34.862Z,101115.41
2023-02-16T00:42:06.245Z,101120.97
2023-02-16T00:44:46.852Z,101095.44
2023-02-16T00:47:30.226Z,101117.53
2023-02-16T00:49:58.756Z,101102.44
2023-02-16T00:52:37.654Z,101104.88
2023-02-16T00:55:09.322Z,101107.41
2023-02-16T00:58:05.133Z,101104.88
2023-02-16T01:00:40.549Z,101095.94
2023-02-16T01:03:21.547Z,101094.75
2023-02-16T01:06:11.931Z,101099.13
2023-02-16T01:08:59.785Z,101100.22
2023-02-16T01:11:28.662Z,101106.28
2023-02-16T01:13:57.141Z,101099.13
2023-02-16T01:16:46.627Z,101068.44
2023-02-16T01:19:19.019Z,101090.81
2023-02-16T01:21:50.658Z,101086.03
2023-02-16T01:24:23.453Z,101071.47
2023-02-16T01:26:53.308Z,101087.63
2023-02-16T01:29:28.979Z,101079.47
2023-02-16T01:31:58.131Z,101091.38
2023-02-16T01:34:28.332Z,101069.25
2023-02-16T01:37:02.374Z,101081.38
2023-02-16T01:39:35.492Z,101080.66
2023-02-16T01:42:16.650Z,101088.34
2023-02-16T01:44:50.993Z,101073.47
2023-02-16T01:47:28.607Z,101084.59
2023-02-16T01:49:57.117Z,101072.03
2023-02-16T01:52:38.530Z,101070.09
2023-02-16T01:55:31.553Z,101080.66
2023-02-16T01:58:55.815Z,101077.25
2023-02-16T02:01:40.306Z,101069.59
2023-02-16T02:04:41.851Z,101058.69
2023-02-16T02:07:26.616Z,101057.13
2023-02-16T02:10:11.726Z,101056.59
2023-02-16T02:12:57.119Z,101058.75
2023-02-16T02:15:34.500Z,101057.38
2023-02-16T02:18:33.419Z,101059.53
2023-02-16T02:22:19.242Z,101049.38
2023-02-16T02:24:58.967Z,101046.72
2023-02-16T02:28:10.048Z,101039.38
2023-02-16T02:31:04.662Z,101037.88
2023-02-16T02:34:12.786Z,101039.69
2023-02-16T02:37:39.383Z,101023.13
2023-02-16T02:40:46.862Z,101015.16
2023-02-16T02:43:34.951Z,101015.38
2023-02-16T02:46:16.349Z,101003.56
2023-02-16T02:48:48.794Z,101022.19
2023-02-16T02:51:31.381Z,101009.41
2023-02-16T02:54:36.770Z,101017.66
2023-02-16T02:57:55.053Z,101022.50
2023-02-16T03:00:47.425Z,100990.91
2023-02-16T03:03:40.056Z,101027.13
2023-02-16T03:06:22.958Z,101028.47
2023-02-16T03:09:15.646Z,101025.09
2023-02-16T03:12:06.460Z,101021.31
2023-02-16T03:14:40.496Z,101027.22
2023-02-16T03:17:34.396Z,101016.78
2023-02-16T03:20:47.896Z,101027.78
2023-02-16T03:23:34.910Z,101021.94
2023-02-16T03:26:22.466Z,101036.97
2023-02-16T03:29:11.299Z,101012.19
2023-02-16T03:31:45.552Z,101022.84
2023-02-16T03:34:16.789Z,101023.06
2023-02-16T03:36:54.183Z,101032.06
2023-02-16T03:39:22.253Z,101000.81
2023-02-16T03:41:55.297Z,101027.50
2023-02-16T03:44:36.418Z,101023.88
2023-02-16T03:47:12.397Z,101004.94
2023-02-16T03:49:44.418Z,101014.41
2023-02-16T03:52:33.290Z,101005.44
2023-02-16T03:55:03.456Z,100967.84
2023-02-16T03:57:34.178Z,100976.94
2023-02-16T04:00:21.000Z,100997.53
2023-02-16T04:02:50.982Z,100982.31
2023-02-16T04:05:18.883Z,100983.91
2023-02-16T04:07:49.858Z,100994.56
2023-02-16T04:10:21.192Z,100994.72
2023-02-16T04:12:59.896Z,100993.78
2023-02-16T04:15:31.338Z,100996.44
2023-02-16T04:18:03.164Z,100997.41
2023-02-16T04:20:34.143Z,101004.94
2023-02-16T04:23:08.148Z,100996.72
2023-02-16T04:25:36.771Z,100965.25
2023-02-16T04:28:06.795Z,100985.78
2023-02-16T04:30:35.137Z,100967.47
2023-02-16T04:33:05.697Z,100990.88
2023-02-16T04:35:44.561Z,100975.38
2023-02-16T04:38:27.391Z,100991.63
2023-02-16T04:40:57.423Z,100995.78
2023-02-16T04:43:27.464Z,100991.16
2023-02-16T04:45:55.893Z,100988.84
2023-02-16T04:48:32.333Z,100983.56
2023-02-16T04:51:09.901Z,100988.78
2023-02-16T04:53:43.077Z,100983.44
2023-02-16T04:56:17.335Z,100984.72
2023-02-16T04:58:50.737Z,100969.03
2023-02-16T05:01:26.239Z,100972.78
2023-02-16T05:04:02.681Z,100982.16
2023-02-16T05:06:37.082Z,100929.03
2023-02-16T05:09:12.038Z,100959.75
2023-02-16T05:12:03.047Z,100958.56
2023-02-16T05:14:43.662Z,100964.75
2023-02-16T05:17:24.364Z,100979.41
2023-02-16T05:20:02.909Z,100984.22
2023-02-16T05:22:40.972Z,100980.09
2023-02-16T05:25:22.006Z,100971.81
2023-02-16T05:27:58.744Z,100988.34
2023-02-16T05:30:29.597Z,100942.22
2023-02-16T05:33:11.543Z,100971.38
2023-02-16T05:35:39.609Z,100975.63
2023-02-16T05:38:12.413Z,100975.41
2023-02-16T05:40:42.095Z,100956.28
2023-02-16T05:43:10.251Z,100966.88
2023-02-16T05:45:41.581Z,100989.41
2023-02-16T05:48:11.652Z,100975.03
2023-02-16T05:50:40.546Z,100980.44
2023-02-16T05:53:12.357Z,100987.97
2023-02-16T05:55:50.709Z,100978.75
2023-02-16T05:58:21.491Z,100984.06
2023-02-16T06:00:54.806Z,100964.72
2023-02-16T06:03:23.226Z,100987.38
2023-02-16T06:05:59.085Z,100979.16
2023-02-16T06:08:28.281Z,100982.06
2023-02-16T06:11:00.403Z,100959.69
2023-02-16T06:13:29.485Z,100977.94
2023-02-16T06:16:17.841Z,100982.84
2023-02-16T06:19:01.047Z,100988.41
2023-02-16T06:21:34.834Z,100978.16
2023-02-16T06:24:22.435Z,100969.69
2023-02-16T06:26:54.060Z,100966.13
2023-02-16T06:29:23.055Z,100950.28
2023-02-16T06:31:57.151Z,100964.28
2023-02-16T06:34:34.091Z,100965.28
2023-02-16T06:37:09.105Z,100964.13
2023-02-16T06:39:36.491Z,100994.50
2023-02-16T06:42:04.354Z,100986.88
2023-02-16T06:44:33.390Z,100981.25
2023-02-16T06:47:03.355Z,100971.81
2023-02-16T06:49:30.695Z,101005.78
2023-02-16T06:52:01.942Z,100992.09
2023-02-16T06:54:30.638Z,100977.63
2023-02-16T06:56:58.618Z,100988.88
2023-02-16T06:59:29.042Z,100991.56
2023-02-16T07:02:00.974Z,100973.78
2023-02-16T07:04:32.962Z,100994.94
2023-02-16T07:07:15.289Z,101000.56
2023-02-16T07:10:09.362Z,100989.25
2023-02-16T07:13:03.753Z,100969.19
2023-02-16T07:15:38.403Z,100992.94
2023-02-16T07:18:08.045Z,100990.38
2023-02-16T07:20:36.482Z,100975.38
2023-02-16T07:23:13.199Z,100980.19
2023-02-16T07:25:43.034Z,100961.44
2023-02-16T07:28:28.268Z,100957.91
2023-02-16T07:30:57.090Z,100943.28
2023-02-16T07:33:47.816Z,100953.00
2023-02-16T07:36:17.198Z,100961.38
2023-02-16T07:38:48.656Z,100950.97
2023-02-16T07:41:21.392Z,100944.28
2023-02-16T07:44:20.080Z,100968.75
2023-02-16T07:46:51.531Z,100963.97
2023-02-16T07:49:23.056Z,100973.25
2023-02-16T07:51:56.421Z,100975.09
2023-02-16T07:54:25.395Z,100967.16
2023-02-16T07:56:54.311Z,100969.03
2023-02-16T07:59:25.289Z,100984.19
2023-02-16T08:01:53.081Z,100973.19
2023-02-16T08:04:23.466Z,100968.53
2023-02-16T08:06:53.504Z,100950.50
2023-02-16T08:09:26.549Z,100978.19
2023-02-16T08:11:58.088Z,100975.94
2023-02-16T08:14:27.017Z,100971.72
2023-02-16T08:16:56.814Z,100986.69
2023-02-16T08:19:27.510Z,100987.13
2023-02-16T08:21:56.613Z,100984.88
2023-02-16T08:24:25.213Z,100977.50
2023-02-16T08:27:06.425Z,100981.13
2023-02-16T08:29:33.863Z,100980.13
2023-02-16T08:32:07.784Z,100976.81
2023-02-16T08:34:36.256Z,100970.13
2023-02-16T08:37:05.335Z,100974.44
2023-02-16T08:39:33.774Z,100971.47
2023-02-16T08:44:43.533Z,100973.97
2023-02-16T08:47:17.021Z,100968.22
2023-02-16T08:49:48.506Z,100974.88
2023-02-16T08:52:17.207Z,100976.34
2023-02-16T08:54:47.194Z,100954.31
2023-02-16T08:57:21.297Z,100955.53
2023-02-16T09:00:15.321Z,100970.03
2023-02-16T09:02:47.890Z,100977.34
2023-02-16T09:05:23.866Z,100963.94
2023-02-16T09:07:58.800Z,100975.50
2023-02-16T09:10:32.356Z,100966.69
2023-02-16T09:13:16.363Z,100960.34
2023-02-16T09:19:23.002Z,100950.78
2023-02-16T09:21:56.994Z,100962.03
2023-02-16T09:24:33.060Z,100951.94
2023-02-16T09:27:04.686Z,100947.41
2023-02-16T09:29:38.058Z,100940.69
2023-02-16T09:33:20.008Z,100975.34
2023-02-16T09:35:57.807Z,100955.53
2023-02-16T09:38:29.957Z,100937.09
2023-02-16T09:41:01.324Z,100962.25
2023-02-16T09:43:55.642Z,100962.88
2023-02-16T09:46:28.493Z,100949.25
2023-02-16T09:49:35.931Z,100970.25
2023-02-16T09:52:29.673Z,100960.59
2023-02-16T09:55:03.178Z,100954.69
2023-02-16T09:57:59.965Z,100964.13
2023-02-16T10:00:39.521Z,100964.31
2023-02-16T10:03:45.977Z,100957.19
2023-02-16T10:07:08.934Z,100954.50
2023-02-16T10:09:39.242Z,100948.59
2023-02-16T10:12:19.592Z,100949.63
2023-02-16T10:15:03.446Z,100951.78
2023-02-16T10:17:39.201Z,100949.69
2023-02-16T10:20:30.794Z,100920.34
2023-02-16T10:23:09.046Z,100928.41
2023-02-16T10:26:08.307Z,100926.91
2023-02-16T10:28:48.829Z,100925.75
2023-02-16T10:31:39.114Z,100933.97
2023-02-16T10:34:13.794Z,100916.22
2023-02-16T10:37:05.050Z,100920.25
2023-02-16T10:40:24.986Z,100907.13
2023-02-16T10:43:14.670Z,100911.72
2023-02-16T10:45:52.543Z,100914.25
2023-02-16T10:48:23.786Z,100900.53
2023-02-16T10:51:06.784Z,100911.91
2023-02-16T10:54:13.533Z,100910.47
2023-02-16T10:57:04.475Z,100899.13
2023-02-16T10:59:44.526Z,100890.94
2023-02-16T11:02:24.452Z,100888.25
2023-02-16T11:04:54.493Z,100890.22
2023-02-16T11:07:24.671Z,100896.78
2023-02-16T11:09:56.054Z,100890.72
2023-02-16T11:12:43.010Z,100892.78
2023-02-16T11:15:21.417Z,100890.66
2023-02-16T11:18:31.821Z,100878.16
2023-02-16T11:21:13.395Z,100885.50
2023-02-16T11:23:48.548Z,100881.78
2023-02-16T11:26:31.884Z,100877.66
2023-02-16T11:29:22.994Z,100867.50
2023-02-16T11:31:52.723Z,100873.16
2023-02-16T11:34:37.477Z,100881.66
2023-02-16T11:37:22.951Z,100885.16
2023-02-16T11:39:57.036Z,100885.09
2023-02-16T11:42:27.765Z,100880.00
2023-02-16T11:45:04.063Z,100861.88
2023-02-16T11:47:54.044Z,100866.88
2023-02-16T11:50:29.988Z,100862.28
2023-02-16T11:53:13.661Z,100858.78
2023-02-16T11:55:48.290Z,100859.38
2023-02-16T11:58:29.826Z,100850.94
2023-02-16T12:01:29.425Z,100855.75
2023-02-16T12:07:50.199Z,100844.47
2023-02-16T12:11:10.587Z,100843.81
2023-02-16T12:14:05.565Z,100847.63
2023-02-16T12:16:47.501Z,100850.06
2023-02-16T12:19:41.809Z,100854.59
2023-02-16T12:22:29.296Z,100845.72
2023-02-16T12:25:33.771Z,100822.53
2023-02-16T12:28:37.472Z,100842.00
2023-02-16T12:31:22.940Z,100846.50
2023-02-16T12:37:20.255Z,100810.00
2023-02-16T12:40:31.312Z,100834.03
2023-02-16T12:43:43.552Z,100826.75
2023-02-16T12:46:28.300Z,100827.28
2023-02-16T12:49:22.841Z,100827.63
2023-02-16T12:52:00.102Z,100818.56
2023-02-16T12:54:39.446Z,100813.75
2023-02-16T12:57:15.250Z,100816.00
2023-02-16T13:00:31.885Z,100813.19
2023-02-16T13:03:39.984Z,100809.56
2023-02-16T13:06:21.301Z,100804.66
2023-02-16T13:08:49.549Z,100808.66
2023-02-16T13:11:32.971Z,100797.91
2023-02-16T13:14:14.829Z,100780.19
2023-02-16T13:20:23.321Z,100769.97
2023-02-16T13:23:17.195Z,100777.56
2023-02-16T13:26:11.243Z,100785.34
2023-02-16T13:28:49.991Z,100785.56
2023-02-16T13:31:41.316Z,100777.28
2023-02-16T13:34:41.431Z,100789.69
2023-02-16T13:37:26.399Z,100786.13
2023-02-16T13:40:06.282Z,100781.72
2023-02-16T13:43:19.728Z,100773.34
2023-02-16T13:45:55.546Z,100767.59
2023-02-16T13:48:33.839Z,100772.38
2023-02-16T13:51:05.109Z,100769.09
2023-02-16T13:53:38.864Z,100758.88
2023-02-16T13:56:22.991Z,100774.81
2023-02-16T13:58:52.977Z,100762.59
2023-02-16T14:01:43.786Z,100764.97
2023-02-16T14:04:23.828Z,100764.72
2023-02-16T14:07:20.171Z,100763.81
2023-02-16T14:09:51.346Z,100760.66
2023-02-16T14:12:22.726Z,100758.47
2023-02-16T14:14:54.499Z,100755.75
2023-02-16T14:17:21.914Z,100752.50
2023-02-16T14:20:06.242Z,100756.47
2023-02-16T14:23:00.317Z,100751.97
2023-02-16T14:25:31.568Z,100758.16
2023-02-16T14:28:31.944Z,100747.03
2023-02-16T14:31:04.195Z,100741.41
2023-02-16T14:33:46.397Z,100748.00
2023-02-16T14:36:17.799Z,100753.81
2023-02-16T14:38:52.189Z,100745.66
2023-02-16T14:41:35.724Z,100758.63
2023-02-16T14:44:06.163Z,100748.78
2023-02-16T14:46:50.053Z,100747.97
2023-02-16T14:49:38.436Z,100754.66
2023-02-16T14:52:36.146Z,100745.28
2023-02-16T14:55:53.742Z,100752.22
2023-02-16T14:58:30.501Z,100750.31
2023-02-16T15:01:12.989Z,100748.19
2023-02-16T15:03:50.540Z,100748.38
2023-02-16T15:06:31.381Z,100752.94
2023-02-16T15:09:06.853Z,100729.09
2023-02-16T15:11:56.972Z,100732.19
2023-02-16T15:14:31.746Z,100745.09
2023-02-16T15:17:00.570Z,100747.34
2023-02-16T15:19:32.867Z,100740.63
2023-02-16T15:22:23.938Z,100735.44
2023-02-16T15:25:22.504Z,100731.06
2023-02-16T15:28:01.996Z,100724.53
2023-02-16T15:30:35.426Z,100732.53
2023-02-16T15:33:09.296Z,100730.91
2023-02-16T15:35:44.495Z,100726.25
2023-02-16T15:38:15.115Z,100722.03
2023-02-16T15:40:45.521Z,100727.91
2023-02-16T15:43:16.622Z,100731.09
2023-02-16T15:45:49.174Z,100731.97
2023-02-16T15:48:25.070Z,100729.25
2023-02-16T15:51:01.820Z,100718.81
2023-02-16T15:53:37.374Z,100728.41
2023-02-16T15:56:29.929Z,100722.44
2023-02-16T15:59:02.123Z,100723.63
2023-02-16T16:01:35.423Z,100730.06
2023-02-16T16:04:20.884Z,100724.88
2023-02-16T16:06:51.938Z,100723.31
2023-02-16T16:09:35.613Z,100720.91
2023-02-16T16:12:11.224Z,100728.34
2023-02-16T16:14:47.607Z,100726.31
2023-02-16T16:17:19.492Z,100703.78
2023-02-16T16:19:47.399Z,100731.00
2023-02-16T16:22:40.064Z,100735.91
2023-02-16T16:25:38.024Z,100735.78
2023-02-16T16:28:08.825Z,100712.72
2023-02-16T16:30:43.948Z,100740.50
2023-02-16T16:33:14.110Z,100740.88
2023-02-16T16:35:51.775Z,100727.63
2023-02-16T16:38:26.408Z,100748.53
2023-02-16T16:40:56.335Z,100747.19
2023-02-16T16:43:32.575Z,100722.22
2023-02-16T16:46:27.951Z,100752.91
2023-02-16T16:49:00.896Z,100735.69
2023-02-16T16:51:40.494Z,100748.31
2023-02-16T16:54:33.385Z,100747.63
2023-02-16T16:57:24.453Z,100746.75
2023-02-16T16:59:53.644Z,100753.19
2023-02-16T17:02:21.924Z,100745.09
2023-02-16T17:04:50.209Z,100729.69
2023-02-16T17:07:20.749Z,100727.28
2023-02-16T17:09:49.777Z,100766.25
2023-02-16T17:12:21.822Z,100750.38
2023-02-16T17:14:58.373Z,100754.81
2023-02-16T17:17:35.000Z,100751.19
2023-02-16T17:20:02.491Z,100765.50
2023-02-16T17:22:37.481Z,100769.81
2023-02-16T17:25:05.149Z,100763.19
2023-02-16T17:27:32.663Z,100759.28
2023-02-16T17:29:59.938Z,100760.78
2023-02-16T17:32:28.297Z,100754.00
2023-02-16T17:34:55.562Z,100757.00
2023-02-16T17:37:23.210Z,100759.69
2023-02-16T17:39:51.292Z,100749.88
2023-02-16T17:42:20.964Z,100755.03
2023-02-16T17:44:54.523Z,100731.53
2023-02-16T17:47:22.724Z,100745.31
2023-02-16T17:49:52.946Z,100746.41
2023-02-16T17:52:30.065Z,100753.06
2023-02-16T17:54:58.021Z,100747.13
2023-02-16T17:57:26.343Z,100751.53
2023-02-16T17:59:54.240Z,100748.84
2023-02-16T18:02:22.386Z,100760.97
2023-02-16T18:04:51.221Z,100756.25
2023-02-16T18:07:20.208Z,100766.34
2023-02-16T18:09:49.286Z,100763.38
2023-02-16T18:12:16.977Z,100767.91
2023-02-16T18:14:45.335Z,100763.13
2023-02-16T18:17:15.140Z,100763.13
2023-02-16T18:19:42.360Z,100761.81
2023-02-16T18:22:10.146Z,100765.38
2023-02-16T18:24:37.456Z,100758.75
2023-02-16T18:27:06.872Z,100754.16
2023-02-16T18:29:34.163Z,100754.59
2023-02-16T18:32:03.454Z,100761.59
2023-02-16T18:34:32.600Z,100751.75
2023-02-16T18:37:00.132Z,100754.91
2023-02-16T18:39:27.348Z,100761.72
2023-02-16T18:41:55.450Z,100755.72
2023-02-16T18:44:22.878Z,100745.38
2023-02-16T18:46:50.485Z,100761.00
2023-02-16T18:49:17.908Z,100764.41
2023-02-16T18:51:46.560Z,100763.94
2023-02-16T18:54:13.809Z,100762.31
2023-02-16T18:56:41.439Z,100751.47
2023-02-16T18:59:08.781Z,100740.78
2023-02-16T19:01:36.822Z,100757.31
2023-02-16T19:04:06.194Z,100764.63
2023-02-16T19:06:34.523Z,100759.72
2023-02-16T19:09:01.757Z,100758.19
2023-02-16T19:11:30.922Z,100765.09
2023-02-16T19:13:58.374Z,100759.72
2023-02-16T19:16:27.345Z,100768.06
2023-02-16T19:18:55.919Z,100765.00
2023-02-16T19:21:23.425Z,100770.50
2023-02-16T19:23:51.864Z,100760.63
2023-02-16T19:26:20.180Z,100762.59
2023-02-16T19:28:47.671Z,100764.59
2023-02-16T19:31:19.704Z,100759.38
2023-02-16T19:33:47.271Z,100758.78
2023-02-16T19:36:15.527Z,100753.66
2023-02-16T19:38:43.793Z,100766.59
2023-02-16T19:41:18.662Z,100772.63
2023-02-16T19:43:47.884Z,100749.38
2023-02-16T19:46:16.299Z,100767.97
2023-02-16T19:48:46.053Z,100774.66
2023-02-16T19:51:14.247Z,100783.22
2023-02-16T19:53:42.708Z,100773.50
2023-02-16T19:56:14.882Z,100773.66
2023-02-16T19:58:42.580Z,100781.00
2023-02-16T20:01:13.835Z,100751.94
2023-02-16T20:03:41.524Z,100769.38
2023-02-16T20:06:17.601Z,100776.72
2023-02-16T20:08:46.164Z,100778.63
2023-02-16T20:11:14.869Z,100786.25
2023-02-16T20:13:42.586Z,100777.97
2023-02-16T20:16:12.006Z,100754.44
2023-02-16T20:18:40.648Z,100780.78
2023-02-16T20:21:19.734Z,100780.22
2023-02-16T20:23:48.007Z,100787.75
2023-02-16T20:26:26.875Z,100781.38
2023-02-16T20:28:56.205Z,100783.94
2023-02-16T20:31:30.248Z,100777.19
2023-02-16T20:33:58.318Z,100776.94
2023-02-16T20:36:25.899Z,100774.00
2023-02-16T20:38:54.059Z,100780.94
2023-02-16T20:41:22.342Z,100788.84
2023-02-16T20:43:53.716Z,100789.25
2023-02-16T20:46:24.038Z,100789.16
2023-02-16T20:48:51.892Z,100790.13
2023-02-16T20:51:21.051Z,100786.06
2023-02-16T20:53:49.089Z,100783.06
2023-02-16T20:56:21.770Z,100786.31
2023-02-16T20:58:52.824Z,100786.59
2023-02-16T21:01:37.307Z,100782.09
2023-02-16T21:04:08.038Z,100782.06
2023-02-16T21:06:37.029Z,100789.69
2023-02-16T21:09:08.919Z,100785.34
2023-02-16T21:11:37.750Z,100797.03
2023-02-16T21:14:06.565Z,100794.50
2023-02-16T21:16:34.519Z,100792.41
2023-02-16T21:19:02.906Z,100789.72
2023-02-16T21:21:33.118Z,100789.28
2023-02-16T21:24:00.668Z,100781.25
2023-02-16T21:26:28.222Z,100781.25
2023-02-16T21:28:57.320Z,100774.78
2023-02-16T21:31:25.825Z,100775.31
2023-02-16T21:33:54.131Z,100781.25
2023-02-16T21:36:24.099Z,100794.66
2023-02-16T21:38:51.595Z,100790.25
2023-02-16T21:41:25.652Z,100795.03
2023-02-16T21:44:12.816Z,100797.31
2023-02-16T21:46:44.030Z,100803.94
2023-02-16T21:49:19.686Z,100804.50
2023-02-16T21:52:12.286Z,100808.44
2023-02-16T21:55:01.469Z,100806.56
2023-02-16T21:57:32.108Z,100811.78
2023-02-16T21:59:59.621Z,100801.34
2023-02-16T22:02:27.497Z,100790.22
2023-02-16T22:04:56.389Z,100798.41
2023-02-16T22:07:23.862Z,100812.09
2023-02-16T22:09:51.196Z,100796.69
2023-02-16T22:12:19.879Z,100806.13
2023-02-16T22:14:47.594Z,100799.06
2023-02-16T22:17:15.414Z,100797.81
2023-02-16T22:19:42.759Z,100794.13
2023-02-16T22:22:11.283Z,100796.28
2023-02-16T22:24:39.361Z,100793.72
2023-02-16T22:27:07.196Z,100792.19
2023-02-16T22:29:34.480Z,100797.25
2023-02-16T22:32:02.062Z,100805.97
2023-02-16T22:34:30.883Z,100799.63
2023-02-16T22:36:58.408Z,100803.44
2023-02-16T22:39:25.797Z,100811.44
2023-02-16T22:41:54.791Z,100810.63
2023-02-16T22:44:24.081Z,100804.50
2023-02-16T22:46:51.839Z,100813.38
2023-02-16T22:49:22.540Z,100804.78
2023-02-16T22:51:51.428Z,100804.19
2023-02-16T22:54:18.830Z,100803.63
2023-02-16T22:56:46.845Z,100805.13
2023-02-16T22:59:14.135Z,100815.69
2023-02-16T23:01:42.063Z,100789.63
2023-02-16T23:04:16.561Z,100808.97
2023-02-16T23:06:47.466Z,100806.56
2023-02-16T23:09:20.201Z,100818.25
2023-02-16T23:11:49.017Z,100792.16
2023-02-16T23:14:17.688Z,100802.03
2023-02-16T23:16:47.331Z,100804.41
2023-02-16T23:19:17.594Z,100799.63
2023-02-16T23:21:45.616Z,100801.34
2023-02-16T23:24:20.125Z,100780.72
2023-02-16T23:26:48.158Z,100807.53
2023-02-16T23:29:16.719Z,100799.81
2023-02-16T23:31:47.387Z,100797.97
2023-02-16T23:34:19.152Z,100767.78
2023-02-16T23:36:47.046Z,100798.53
2023-02-16T23:39:18.286Z,100809.25
2023-02-16T23:41:47.731Z,100810.34
2023-02-16T23:44:18.063Z,100798.66
2023-02-16T23:46:50.113Z,100795.38
2023-02-16T23:49:17.626Z,100785.63
2023-02-16T23:51:47.073Z,100809.13
2023-02-16T23:54:14.530Z,100823.75
2023-02-16T23:56:44.689Z,100821.50
2023-02-16T23:59:14.214Z,100816.66
